sensor_id;sensor_type;location;lat;lon;timestamp;P1;durP1;ratioP1;P2;durP2;ratioP2
54937;SDS011;52756;52.826;6.214;2023-07-30T00:01:49;5.10;;;2.60;;
54937;SDS011;52756;52.826;6.214;2023-07-30T00:04:15;7.90;;;3.08;;
54937;SDS011;52756;52.826;6.214;2023-07-30T00:06:41;10.75;;;3.90;;
54937;SDS011;52756;52.826;6.214;2023-07-30T00:09:07;6.75;;;2.88;;
54937;SDS011;52756;52.826;6.214;2023-07-30T00:11:32;5.63;;;2.42;;
54937;SDS011;52756;52.826;6.214;2023-07-30T00:13:58;6.03;;;2.97;;
54937;SDS011;52756;52.826;6.214;2023-07-30T00:16:27;8.05;;;3.47;;
54937;SDS011;52756;52.826;6.214;2023-07-30T00:18:52;9.20;;;3.63;;
54937;SDS011;52756;52.826;6.214;2023-07-30T00:21:18;8.52;;;3.20;;
54937;SDS011;52756;52.826;6.214;2023-07-30T00:23:44;8.07;;;3.42;;
54937;SDS011;52756;52.826;6.214;2023-07-30T00:26:09;9.13;;;3.22;;
54937;SDS011;52756;52.826;6.214;2023-07-30T00:28:35;8.98;;;3.72;;
54937;SDS011;52756;52.826;6.214;2023-07-30T00:31:01;12.18;;;3.63;;
54937;SDS011;52756;52.826;6.214;2023-07-30T00:33:26;10.38;;;3.58;;
54937;SDS011;52756;52.826;6.214;2023-07-30T00:35:52;6.40;;;2.50;;
54937;SDS011;52756;52.826;6.214;2023-07-30T00:38:18;8.60;;;3.38;;
54937;SDS011;52756;52.826;6.214;2023-07-30T00:40:44;9.07;;;4.07;;
54937;SDS011;52756;52.826;6.214;2023-07-30T00:43:10;11.80;;;3.40;;
54937;SDS011;52756;52.826;6.214;2023-07-30T00:45:36;9.27;;;2.80;;
54937;SDS011;52756;52.826;6.214;2023-07-30T00:48:05;8.13;;;2.92;;
54937;SDS011;52756;52.826;6.214;2023-07-30T00:50:30;7.60;;;3.10;;
54937;SDS011;52756;52.826;6.214;2023-07-30T00:52:58;5.70;;;2.45;;
54937;SDS011;52756;52.826;6.214;2023-07-30T00:55:24;11.38;;;3.75;;
54937;SDS011;52756;52.826;6.214;2023-07-30T00:57:50;10.43;;;3.17;;
54937;SDS011;52756;52.826;6.214;2023-07-30T01:00:16;8.23;;;3.67;;
54937;SDS011;52756;52.826;6.214;2023-07-30T01:02:42;9.27;;;3.58;;
54937;SDS011;52756;52.826;6.214;2023-07-30T01:05:09;6.75;;;2.80;;
54937;SDS011;52756;52.826;6.214;2023-07-30T01:07:34;9.20;;;3.10;;
54937;SDS011;52756;52.826;6.214;2023-07-30T01:10:00;8.18;;;3.17;;
54937;SDS011;52756;52.826;6.214;2023-07-30T01:12:28;11.38;;;4.00;;
54937;SDS011;52756;52.826;6.214;2023-07-30T01:14:55;8.80;;;3.05;;
54937;SDS011;52756;52.826;6.214;2023-07-30T01:17:22;10.75;;;3.70;;
54937;SDS011;52756;52.826;6.214;2023-07-30T01:19:48;9.45;;;3.30;;
54937;SDS011;52756;52.826;6.214;2023-07-30T01:22:19;8.48;;;3.10;;
54937;SDS011;52756;52.826;6.214;2023-07-30T01:24:45;11.73;;;3.72;;
54937;SDS011;52756;52.826;6.214;2023-07-30T01:27:13;9.60;;;4.40;;
54937;SDS011;52756;52.826;6.214;2023-07-30T01:29:55;7.82;;;3.40;;
54937;SDS011;52756;52.826;6.214;2023-07-30T01:32:33;8.27;;;2.95;;
54937;SDS011;52756;52.826;6.214;2023-07-30T01:34:59;9.60;;;3.40;;
54937;SDS011;52756;52.826;6.214;2023-07-30T01:37:27;9.18;;;3.28;;
54937;SDS011;52756;52.826;6.214;2023-07-30T01:39:54;8.75;;;3.78;;
54937;SDS011;52756;52.826;6.214;2023-07-30T01:42:21;11.48;;;3.63;;
54937;SDS011;52756;52.826;6.214;2023-07-30T01:44:46;9.85;;;3.05;;
54937;SDS011;52756;52.826;6.214;2023-07-30T01:47:12;9.20;;;3.05;;
54937;SDS011;52756;52.826;6.214;2023-07-30T01:49:38;15.13;;;4.03;;
54937;SDS011;52756;52.826;6.214;2023-07-30T01:52:04;6.78;;;2.90;;
54937;SDS011;52756;52.826;6.214;2023-07-30T01:54:29;10.02;;;3.30;;
54937;SDS011;52756;52.826;6.214;2023-07-30T01:56:55;8.98;;;3.25;;
54937;SDS011;52756;52.826;6.214;2023-07-30T01:59:21;7.03;;;3.08;;
54937;SDS011;52756;52.826;6.214;2023-07-30T02:01:46;8.68;;;2.90;;
54937;SDS011;52756;52.826;6.214;2023-07-30T02:04:12;14.63;;;3.67;;
54937;SDS011;52756;52.826;6.214;2023-07-30T02:06:38;12.35;;;3.72;;
54937;SDS011;52756;52.826;6.214;2023-07-30T02:09:03;7.68;;;3.08;;
54937;SDS011;52756;52.826;6.214;2023-07-30T02:11:29;12.77;;;3.95;;
54937;SDS011;52756;52.826;6.214;2023-07-30T02:13:55;10.05;;;3.50;;
54937;SDS011;52756;52.826;6.214;2023-07-30T02:16:20;8.85;;;2.80;;
54937;SDS011;52756;52.826;6.214;2023-07-30T02:18:46;9.73;;;3.88;;
54937;SDS011;52756;52.826;6.214;2023-07-30T02:21:12;11.63;;;3.30;;
54937;SDS011;52756;52.826;6.214;2023-07-30T02:23:38;9.35;;;2.95;;
54937;SDS011;52756;52.826;6.214;2023-07-30T02:26:04;8.80;;;3.10;;
54937;SDS011;52756;52.826;6.214;2023-07-30T02:28:29;9.70;;;3.33;;
54937;SDS011;52756;52.826;6.214;2023-07-30T02:30:55;11.70;;;3.60;;
54937;SDS011;52756;52.826;6.214;2023-07-30T02:33:21;9.50;;;3.47;;
54937;SDS011;52756;52.826;6.214;2023-07-30T02:35:47;9.98;;;3.00;;
54937;SDS011;52756;52.826;6.214;2023-07-30T02:38:12;11.60;;;3.35;;
54937;SDS011;52756;52.826;6.214;2023-07-30T02:40:38;7.13;;;2.83;;
54937;SDS011;52756;52.826;6.214;2023-07-30T02:43:04;9.38;;;3.65;;
54937;SDS011;52756;52.826;6.214;2023-07-30T02:45:29;17.35;;;4.55;;
54937;SDS011;52756;52.826;6.214;2023-07-30T02:47:55;9.38;;;3.13;;
54937;SDS011;52756;52.826;6.214;2023-07-30T02:50:21;6.57;;;3.05;;
54937;SDS011;52756;52.826;6.214;2023-07-30T02:52:46;12.45;;;3.45;;
54937;SDS011;52756;52.826;6.214;2023-07-30T02:55:12;12.48;;;3.92;;
54937;SDS011;52756;52.826;6.214;2023-07-30T02:57:38;10.63;;;4.10;;
54937;SDS011;52756;52.826;6.214;2023-07-30T03:00:04;11.00;;;3.13;;
54937;SDS011;52756;52.826;6.214;2023-07-30T03:02:30;10.85;;;3.72;;
54937;SDS011;52756;52.826;6.214;2023-07-30T03:04:56;12.00;;;3.65;;
54937;SDS011;52756;52.826;6.214;2023-07-30T03:07:21;13.38;;;4.07;;
54937;SDS011;52756;52.826;6.214;2023-07-30T03:09:47;14.27;;;4.38;;
54937;SDS011;52756;52.826;6.214;2023-07-30T03:12:13;11.65;;;3.78;;
54937;SDS011;52756;52.826;6.214;2023-07-30T03:14:39;6.43;;;2.63;;
54937;SDS011;52756;52.826;6.214;2023-07-30T03:17:05;12.35;;;3.10;;
54937;SDS011;52756;52.826;6.214;2023-07-30T03:19:31;14.85;;;4.10;;
54937;SDS011;52756;52.826;6.214;2023-07-30T03:21:57;8.27;;;3.25;;
54937;SDS011;52756;52.826;6.214;2023-07-30T03:24:23;8.25;;;3.22;;
54937;SDS011;52756;52.826;6.214;2023-07-30T03:26:48;9.10;;;3.08;;
54937;SDS011;52756;52.826;6.214;2023-07-30T03:29:14;11.55;;;3.55;;
54937;SDS011;52756;52.826;6.214;2023-07-30T03:31:41;10.07;;;3.35;;
54937;SDS011;52756;52.826;6.214;2023-07-30T03:34:07;9.70;;;3.33;;
54937;SDS011;52756;52.826;6.214;2023-07-30T03:36:32;6.18;;;2.78;;
54937;SDS011;52756;52.826;6.214;2023-07-30T03:38:58;7.13;;;2.50;;
54937;SDS011;52756;52.826;6.214;2023-07-30T03:41:24;7.15;;;2.65;;
54937;SDS011;52756;52.826;6.214;2023-07-30T03:43:50;11.95;;;2.85;;
54937;SDS011;52756;52.826;6.214;2023-07-30T03:46:16;7.53;;;2.35;;
54937;SDS011;52756;52.826;6.214;2023-07-30T03:48:41;6.10;;;2.58;;
54937;SDS011;52756;52.826;6.214;2023-07-30T03:51:07;9.82;;;2.75;;
54937;SDS011;52756;52.826;6.214;2023-07-30T03:53:33;5.70;;;2.60;;
54937;SDS011;52756;52.826;6.214;2023-07-30T03:55:59;13.15;;;3.45;;
54937;SDS011;52756;52.826;6.214;2023-07-30T03:58:25;7.80;;;3.08;;
54937;SDS011;52756;52.826;6.214;2023-07-30T04:00:50;6.68;;;2.38;;
54937;SDS011;52756;52.826;6.214;2023-07-30T04:03:16;9.50;;;3.17;;
54937;SDS011;52756;52.826;6.214;2023-07-30T04:05:42;10.18;;;3.10;;
54937;SDS011;52756;52.826;6.214;2023-07-30T04:08:08;9.02;;;2.45;;
54937;SDS011;52756;52.826;6.214;2023-07-30T04:10:33;14.57;;;3.47;;
54937;SDS011;52756;52.826;6.214;2023-07-30T04:12:59;6.75;;;2.60;;
54937;SDS011;52756;52.826;6.214;2023-07-30T04:15:25;11.13;;;3.17;;
54937;SDS011;52756;52.826;6.214;2023-07-30T04:17:50;9.23;;;3.47;;
54937;SDS011;52756;52.826;6.214;2023-07-30T04:20:16;7.03;;;3.40;;
54937;SDS011;52756;52.826;6.214;2023-07-30T04:22:43;7.50;;;2.88;;
54937;SDS011;52756;52.826;6.214;2023-07-30T04:25:09;11.00;;;3.17;;
54937;SDS011;52756;52.826;6.214;2023-07-30T04:27:36;6.65;;;2.53;;
54937;SDS011;52756;52.826;6.214;2023-07-30T04:30:02;11.43;;;3.50;;
54937;SDS011;52756;52.826;6.214;2023-07-30T04:32:29;7.55;;;2.95;;
54937;SDS011;52756;52.826;6.214;2023-07-30T04:34:55;8.20;;;3.47;;
54937;SDS011;52756;52.826;6.214;2023-07-30T04:37:21;9.80;;;3.38;;
54937;SDS011;52756;52.826;6.214;2023-07-30T04:39:47;12.85;;;4.32;;
54937;SDS011;52756;52.826;6.214;2023-07-30T04:42:14;11.30;;;3.88;;
54937;SDS011;52756;52.826;6.214;2023-07-30T04:44:40;14.75;;;4.00;;
54937;SDS011;52756;52.826;6.214;2023-07-30T04:47:06;12.10;;;3.65;;
54937;SDS011;52756;52.826;6.214;2023-07-30T04:49:32;9.05;;;2.92;;
54937;SDS011;52756;52.826;6.214;2023-07-30T04:51:58;12.30;;;4.03;;
54937;SDS011;52756;52.826;6.214;2023-07-30T04:54:24;11.05;;;3.38;;
54937;SDS011;52756;52.826;6.214;2023-07-30T04:56:50;12.23;;;3.50;;
54937;SDS011;52756;52.826;6.214;2023-07-30T04:59:15;9.82;;;3.42;;
54937;SDS011;52756;52.826;6.214;2023-07-30T05:01:41;9.27;;;3.50;;
54937;SDS011;52756;52.826;6.214;2023-07-30T05:04:07;9.38;;;3.13;;
54937;SDS011;52756;52.826;6.214;2023-07-30T05:06:32;9.15;;;3.42;;
54937;SDS011;52756;52.826;6.214;2023-07-30T05:08:58;10.40;;;3.65;;
54937;SDS011;52756;52.826;6.214;2023-07-30T05:11:24;9.23;;;3.28;;
54937;SDS011;52756;52.826;6.214;2023-07-30T05:13:50;10.55;;;4.13;;
54937;SDS011;52756;52.826;6.214;2023-07-30T05:16:15;16.17;;;4.38;;
54937;SDS011;52756;52.826;6.214;2023-07-30T05:18:41;14.13;;;3.60;;
54937;SDS011;52756;52.826;6.214;2023-07-30T05:21:07;9.82;;;2.67;;
54937;SDS011;52756;52.826;6.214;2023-07-30T05:23:33;13.07;;;4.40;;
54937;SDS011;52756;52.826;6.214;2023-07-30T05:25:58;11.00;;;3.70;;
54937;SDS011;52756;52.826;6.214;2023-07-30T05:28:24;7.85;;;3.25;;
54937;SDS011;52756;52.826;6.214;2023-07-30T05:30:50;12.32;;;3.40;;
54937;SDS011;52756;52.826;6.214;2023-07-30T05:33:15;9.68;;;3.33;;
54937;SDS011;52756;52.826;6.214;2023-07-30T05:35:41;8.77;;;3.25;;
54937;SDS011;52756;52.826;6.214;2023-07-30T05:38:07;8.10;;;3.15;;
54937;SDS011;52756;52.826;6.214;2023-07-30T05:40:33;9.73;;;3.83;;
54937;SDS011;52756;52.826;6.214;2023-07-30T05:43:00;10.95;;;4.20;;
54937;SDS011;52756;52.826;6.214;2023-07-30T05:45:26;14.55;;;4.05;;
54937;SDS011;52756;52.826;6.214;2023-07-30T05:47:52;9.48;;;3.22;;
54937;SDS011;52756;52.826;6.214;2023-07-30T05:50:18;11.40;;;4.05;;
54937;SDS011;52756;52.826;6.214;2023-07-30T05:52:43;11.90;;;3.83;;
54937;SDS011;52756;52.826;6.214;2023-07-30T05:55:09;10.10;;;3.35;;
54937;SDS011;52756;52.826;6.214;2023-07-30T05:57:36;11.88;;;3.97;;
54937;SDS011;52756;52.826;6.214;2023-07-30T06:00:02;10.68;;;2.97;;
54937;SDS011;52756;52.826;6.214;2023-07-30T06:02:28;11.43;;;3.88;;
54937;SDS011;52756;52.826;6.214;2023-07-30T06:04:54;11.82;;;3.80;;
54937;SDS011;52756;52.826;6.214;2023-07-30T06:07:20;15.32;;;4.15;;
54937;SDS011;52756;52.826;6.214;2023-07-30T06:09:45;9.88;;;3.95;;
54937;SDS011;52756;52.826;6.214;2023-07-30T06:12:11;11.50;;;3.35;;
54937;SDS011;52756;52.826;6.214;2023-07-30T06:14:37;14.10;;;4.20;;
54937;SDS011;52756;52.826;6.214;2023-07-30T06:17:02;14.57;;;2.95;;
54937;SDS011;52756;52.826;6.214;2023-07-30T06:19:28;13.38;;;3.90;;
54937;SDS011;52756;52.826;6.214;2023-07-30T06:21:54;10.48;;;3.25;;
54937;SDS011;52756;52.826;6.214;2023-07-30T06:24:20;14.00;;;3.53;;
54937;SDS011;52756;52.826;6.214;2023-07-30T06:26:45;15.05;;;3.70;;
54937;SDS011;52756;52.826;6.214;2023-07-30T06:29:11;11.35;;;3.65;;
54937;SDS011;52756;52.826;6.214;2023-07-30T06:31:37;13.95;;;3.45;;
54937;SDS011;52756;52.826;6.214;2023-07-30T06:34:03;12.27;;;4.60;;
54937;SDS011;52756;52.826;6.214;2023-07-30T06:36:28;15.15;;;3.97;;
54937;SDS011;52756;52.826;6.214;2023-07-30T06:38:54;12.82;;;3.63;;
54937;SDS011;52756;52.826;6.214;2023-07-30T06:41:20;14.07;;;3.63;;
54937;SDS011;52756;52.826;6.214;2023-07-30T06:43:46;12.65;;;3.85;;
54937;SDS011;52756;52.826;6.214;2023-07-30T06:46:12;11.63;;;3.30;;
54937;SDS011;52756;52.826;6.214;2023-07-30T06:48:38;12.23;;;3.70;;
54937;SDS011;52756;52.826;6.214;2023-07-30T06:51:07;14.43;;;3.35;;
54937;SDS011;52756;52.826;6.214;2023-07-30T06:53:34;11.63;;;3.22;;
54937;SDS011;52756;52.826;6.214;2023-07-30T06:56:00;8.80;;;2.50;;
54937;SDS011;52756;52.826;6.214;2023-07-30T06:58:26;12.15;;;3.25;;
54937;SDS011;52756;52.826;6.214;2023-07-30T07:00:51;12.32;;;2.92;;
54937;SDS011;52756;52.826;6.214;2023-07-30T07:03:17;11.70;;;3.17;;
54937;SDS011;52756;52.826;6.214;2023-07-30T07:05:43;13.60;;;3.50;;
54937;SDS011;52756;52.826;6.214;2023-07-30T07:08:08;10.63;;;2.75;;
54937;SDS011;52756;52.826;6.214;2023-07-30T07:10:34;12.48;;;3.58;;
54937;SDS011;52756;52.826;6.214;2023-07-30T07:13:00;12.13;;;3.03;;
54937;SDS011;52756;52.826;6.214;2023-07-30T07:15:25;10.00;;;2.95;;
54937;SDS011;52756;52.826;6.214;2023-07-30T07:17:51;8.35;;;2.75;;
54937;SDS011;52756;52.826;6.214;2023-07-30T07:20:17;16.02;;;4.25;;
54937;SDS011;52756;52.826;6.214;2023-07-30T07:22:43;15.65;;;3.35;;
54937;SDS011;52756;52.826;6.214;2023-07-30T07:25:09;10.80;;;3.08;;
54937;SDS011;52756;52.826;6.214;2023-07-30T07:27:35;11.05;;;3.05;;
54937;SDS011;52756;52.826;6.214;2023-07-30T07:30:00;9.18;;;2.65;;
54937;SDS011;52756;52.826;6.214;2023-07-30T07:32:26;12.15;;;3.20;;
54937;SDS011;52756;52.826;6.214;2023-07-30T07:34:53;10.50;;;3.25;;
54937;SDS011;52756;52.826;6.214;2023-07-30T07:37:19;10.23;;;3.00;;
54937;SDS011;52756;52.826;6.214;2023-07-30T07:39:45;9.02;;;2.85;;
54937;SDS011;52756;52.826;6.214;2023-07-30T07:42:11;10.90;;;3.20;;
54937;SDS011;52756;52.826;6.214;2023-07-30T07:44:37;8.65;;;2.45;;
54937;SDS011;52756;52.826;6.214;2023-07-30T07:47:03;11.30;;;3.35;;
54937;SDS011;52756;52.826;6.214;2023-07-30T07:49:28;10.80;;;2.63;;
54937;SDS011;52756;52.826;6.214;2023-07-30T07:51:54;10.77;;;3.40;;
54937;SDS011;52756;52.826;6.214;2023-07-30T07:54:20;9.65;;;3.00;;
54937;SDS011;52756;52.826;6.214;2023-07-30T07:56:46;8.80;;;2.33;;
54937;SDS011;52756;52.826;6.214;2023-07-30T07:59:11;12.95;;;3.88;;
54937;SDS011;52756;52.826;6.214;2023-07-30T08:01:37;10.38;;;2.90;;
54937;SDS011;52756;52.826;6.214;2023-07-30T08:04:03;9.48;;;2.95;;
54937;SDS011;52756;52.826;6.214;2023-07-30T08:06:29;6.32;;;2.38;;
54937;SDS011;52756;52.826;6.214;2023-07-30T08:08:56;8.68;;;2.63;;
54937;SDS011;52756;52.826;6.214;2023-07-30T08:11:22;9.88;;;2.72;;
54937;SDS011;52756;52.826;6.214;2023-07-30T08:13:48;6.55;;;1.98;;
54937;SDS011;52756;52.826;6.214;2023-07-30T08:16:13;10.32;;;3.05;;
54937;SDS011;52756;52.826;6.214;2023-07-30T08:18:39;8.60;;;2.42;;
54937;SDS011;52756;52.826;6.214;2023-07-30T08:21:05;6.80;;;2.00;;
54937;SDS011;52756;52.826;6.214;2023-07-30T08:23:30;8.23;;;2.30;;
54937;SDS011;52756;52.826;6.214;2023-07-30T08:25:56;7.07;;;2.25;;
54937;SDS011;52756;52.826;6.214;2023-07-30T08:28:22;6.35;;;1.83;;
54937;SDS011;52756;52.826;6.214;2023-07-30T08:30:47;9.38;;;1.98;;
54937;SDS011;52756;52.826;6.214;2023-07-30T08:33:13;7.85;;;2.70;;
54937;SDS011;52756;52.826;6.214;2023-07-30T08:35:39;8.48;;;1.98;;
54937;SDS011;52756;52.826;6.214;2023-07-30T08:38:04;3.85;;;1.77;;
54937;SDS011;52756;52.826;6.214;2023-07-30T08:40:31;6.10;;;1.95;;
54937;SDS011;52756;52.826;6.214;2023-07-30T08:42:57;7.82;;;2.55;;
54937;SDS011;52756;52.826;6.214;2023-07-30T08:45:23;7.60;;;2.10;;
54937;SDS011;52756;52.826;6.214;2023-07-30T08:47:49;6.93;;;1.80;;
54937;SDS011;52756;52.826;6.214;2023-07-30T08:50:14;5.32;;;1.80;;
54937;SDS011;52756;52.826;6.214;2023-07-30T08:52:40;6.47;;;2.17;;
54937;SDS011;52756;52.826;6.214;2023-07-30T08:55:07;8.25;;;1.90;;
54937;SDS011;52756;52.826;6.214;2023-07-30T08:57:33;5.82;;;1.73;;
54937;SDS011;52756;52.826;6.214;2023-07-30T09:02:30;10.30;;;2.55;;
54937;SDS011;52756;52.826;6.214;2023-07-30T09:05:03;7.90;;;2.60;;
54937;SDS011;52756;52.826;6.214;2023-07-30T09:07:30;6.88;;;2.17;;
54937;SDS011;52756;52.826;6.214;2023-07-30T09:09:55;7.20;;;2.42;;
54937;SDS011;52756;52.826;6.214;2023-07-30T09:12:34;9.25;;;2.45;;
54937;SDS011;52756;52.826;6.214;2023-07-30T09:15:01;5.85;;;2.03;;
54937;SDS011;52756;52.826;6.214;2023-07-30T09:17:29;10.40;;;2.75;;
54937;SDS011;52756;52.826;6.214;2023-07-30T09:19:55;7.60;;;2.55;;
54937;SDS011;52756;52.826;6.214;2023-07-30T09:22:24;5.55;;;1.83;;
54937;SDS011;52756;52.826;6.214;2023-07-30T09:24:55;5.40;;;2.10;;
54937;SDS011;52756;52.826;6.214;2023-07-30T09:27:22;3.55;;;1.35;;
54937;SDS011;52756;52.826;6.214;2023-07-30T09:29:50;5.35;;;1.80;;
54937;SDS011;52756;52.826;6.214;2023-07-30T09:32:20;4.82;;;1.40;;
54937;SDS011;52756;52.826;6.214;2023-07-30T09:34:50;5.15;;;1.23;;
54937;SDS011;52756;52.826;6.214;2023-07-30T09:37:16;4.65;;;1.60;;
54937;SDS011;52756;52.826;6.214;2023-07-30T09:39:42;6.38;;;1.58;;
54937;SDS011;52756;52.826;6.214;2023-07-30T09:42:08;6.50;;;1.35;;
54937;SDS011;52756;52.826;6.214;2023-07-30T09:44:34;5.88;;;1.55;;
54937;SDS011;52756;52.826;6.214;2023-07-30T09:47:03;4.80;;;1.27;;
54937;SDS011;52756;52.826;6.214;2023-07-30T09:49:30;4.00;;;1.20;;
54937;SDS011;52756;52.826;6.214;2023-07-30T09:51:59;4.00;;;1.50;;
54937;SDS011;52756;52.826;6.214;2023-07-30T09:54:26;7.38;;;2.15;;
54937;SDS011;52756;52.826;6.214;2023-07-30T09:56:52;6.72;;;2.03;;
54937;SDS011;52756;52.826;6.214;2023-07-30T09:59:18;6.22;;;1.55;;
54937;SDS011;52756;52.826;6.214;2023-07-30T10:01:47;6.97;;;2.00;;
54937;SDS011;52756;52.826;6.214;2023-07-30T10:04:14;5.90;;;1.58;;
54937;SDS011;52756;52.826;6.214;2023-07-30T10:06:44;6.63;;;2.17;;
54937;SDS011;52756;52.826;6.214;2023-07-30T10:09:35;7.00;;;2.03;;
54937;SDS011;52756;52.826;6.214;2023-07-30T10:12:16;4.63;;;1.60;;
54937;SDS011;52756;52.826;6.214;2023-07-30T10:14:43;5.28;;;1.90;;
54937;SDS011;52756;52.826;6.214;2023-07-30T10:17:10;7.63;;;1.80;;
54937;SDS011;52756;52.826;6.214;2023-07-30T10:19:36;7.18;;;1.70;;
54937;SDS011;52756;52.826;6.214;2023-07-30T10:24:56;6.97;;;1.88;;
54937;SDS011;52756;52.826;6.214;2023-07-30T10:27:24;9.90;;;1.73;;
54937;SDS011;52756;52.826;6.214;2023-07-30T10:30:07;7.07;;;1.70;;
54937;SDS011;52756;52.826;6.214;2023-07-30T10:35:37;7.20;;;2.25;;
54937;SDS011;52756;52.826;6.214;2023-07-30T10:38:20;5.97;;;2.15;;
54937;SDS011;52756;52.826;6.214;2023-07-30T10:41:08;9.18;;;2.17;;
54937;SDS011;52756;52.826;6.214;2023-07-30T10:43:42;9.10;;;1.90;;
54937;SDS011;52756;52.826;6.214;2023-07-30T10:46:12;5.88;;;2.15;;
54937;SDS011;52756;52.826;6.214;2023-07-30T10:48:40;5.78;;;2.20;;
54937;SDS011;52756;52.826;6.214;2023-07-30T10:51:19;5.68;;;1.73;;
54937;SDS011;52756;52.826;6.214;2023-07-30T10:53:49;6.45;;;1.70;;
54937;SDS011;52756;52.826;6.214;2023-07-30T10:56:16;8.48;;;1.98;;
54937;SDS011;52756;52.826;6.214;2023-07-30T10:58:48;6.10;;;1.70;;
54937;SDS011;52756;52.826;6.214;2023-07-30T11:01:15;5.10;;;1.80;;
54937;SDS011;52756;52.826;6.214;2023-07-30T11:03:41;8.43;;;1.90;;
54937;SDS011;52756;52.826;6.214;2023-07-30T11:06:07;6.80;;;1.70;;
54937;SDS011;52756;52.826;6.214;2023-07-30T11:08:36;6.32;;;1.90;;
54937;SDS011;52756;52.826;6.214;2023-07-30T11:11:02;6.05;;;1.63;;
54937;SDS011;52756;52.826;6.214;2023-07-30T11:13:29;7.82;;;1.90;;
54937;SDS011;52756;52.826;6.214;2023-07-30T11:15:55;5.57;;;1.52;;
54937;SDS011;52756;52.826;6.214;2023-07-30T11:18:20;4.72;;;1.45;;
54937;SDS011;52756;52.826;6.214;2023-07-30T11:20:46;6.03;;;1.65;;
54937;SDS011;52756;52.826;6.214;2023-07-30T11:23:19;7.05;;;1.48;;
54937;SDS011;52756;52.826;6.214;2023-07-30T11:25:47;9.57;;;1.92;;
54937;SDS011;52756;52.826;6.214;2023-07-30T11:28:32;7.13;;;2.45;;
54937;SDS011;52756;52.826;6.214;2023-07-30T11:31:03;8.75;;;2.15;;
54937;SDS011;52756;52.826;6.214;2023-07-30T11:33:31;9.98;;;1.83;;
54937;SDS011;52756;52.826;6.214;2023-07-30T11:35:57;8.00;;;1.92;;
54937;SDS011;52756;52.826;6.214;2023-07-30T11:38:25;7.18;;;2.33;;
54937;SDS011;52756;52.826;6.214;2023-07-30T11:40:52;5.97;;;1.52;;
54937;SDS011;52756;52.826;6.214;2023-07-30T11:43:19;5.38;;;1.52;;
54937;SDS011;52756;52.826;6.214;2023-07-30T11:45:46;10.38;;;2.28;;
54937;SDS011;52756;52.826;6.214;2023-07-30T11:48:12;4.57;;;1.30;;
54937;SDS011;52756;52.826;6.214;2023-07-30T11:50:45;6.03;;;1.40;;
54937;SDS011;52756;52.826;6.214;2023-07-30T11:53:12;6.82;;;2.08;;
54937;SDS011;52756;52.826;6.214;2023-07-30T11:55:38;6.30;;;1.35;;
54937;SDS011;52756;52.826;6.214;2023-07-30T11:58:05;3.80;;;1.42;;
54937;SDS011;52756;52.826;6.214;2023-07-30T12:00:32;6.22;;;1.92;;
54937;SDS011;52756;52.826;6.214;2023-07-30T12:03:05;6.15;;;1.52;;
54937;SDS011;52756;52.826;6.214;2023-07-30T12:05:34;5.50;;;1.83;;
54937;SDS011;52756;52.826;6.214;2023-07-30T12:08:01;4.68;;;1.55;;
54937;SDS011;52756;52.826;6.214;2023-07-30T12:10:44;9.20;;;2.13;;
54937;SDS011;52756;52.826;6.214;2023-07-30T12:13:14;6.03;;;1.55;;
54937;SDS011;52756;52.826;6.214;2023-07-30T12:15:51;4.50;;;1.83;;
54937;SDS011;52756;52.826;6.214;2023-07-30T12:18:20;8.68;;;1.98;;
54937;SDS011;52756;52.826;6.214;2023-07-30T12:20:47;5.88;;;1.60;;
54937;SDS011;52756;52.826;6.214;2023-07-30T12:23:15;7.15;;;1.52;;
54937;SDS011;52756;52.826;6.214;2023-07-30T12:25:41;6.95;;;1.50;;
54937;SDS011;52756;52.826;6.214;2023-07-30T12:28:07;6.78;;;1.42;;
54937;SDS011;52756;52.826;6.214;2023-07-30T12:30:32;6.50;;;1.70;;
54937;SDS011;52756;52.826;6.214;2023-07-30T12:33:00;7.00;;;1.58;;
54937;SDS011;52756;52.826;6.214;2023-07-30T12:35:26;3.97;;;1.15;;
54937;SDS011;52756;52.826;6.214;2023-07-30T12:37:52;6.70;;;1.63;;
54937;SDS011;52756;52.826;6.214;2023-07-30T12:40:17;5.65;;;1.60;;
54937;SDS011;52756;52.826;6.214;2023-07-30T12:42:43;9.18;;;1.70;;
54937;SDS011;52756;52.826;6.214;2023-07-30T12:45:09;6.20;;;1.92;;
54937;SDS011;52756;52.826;6.214;2023-07-30T12:47:35;5.88;;;1.50;;
54937;SDS011;52756;52.826;6.214;2023-07-30T12:50:02;7.00;;;1.80;;
54937;SDS011;52756;52.826;6.214;2023-07-30T12:52:28;5.20;;;1.33;;
54937;SDS011;52756;52.826;6.214;2023-07-30T12:54:54;5.20;;;1.38;;
54937;SDS011;52756;52.826;6.214;2023-07-30T12:57:20;6.28;;;1.55;;
54937;SDS011;52756;52.826;6.214;2023-07-30T12:59:45;4.88;;;1.50;;
54937;SDS011;52756;52.826;6.214;2023-07-30T13:02:11;5.50;;;1.92;;
54937;SDS011;52756;52.826;6.214;2023-07-30T13:04:37;6.72;;;1.58;;
54937;SDS011;52756;52.826;6.214;2023-07-30T13:07:02;7.80;;;2.28;;
54937;SDS011;52756;52.826;6.214;2023-07-30T13:09:28;4.68;;;1.30;;
54937;SDS011;52756;52.826;6.214;2023-07-30T13:11:54;5.80;;;1.33;;
54937;SDS011;52756;52.826;6.214;2023-07-30T13:14:20;7.53;;;1.40;;
54937;SDS011;52756;52.826;6.214;2023-07-30T13:16:45;5.65;;;1.63;;
54937;SDS011;52756;52.826;6.214;2023-07-30T13:19:11;5.88;;;1.67;;
54937;SDS011;52756;52.826;6.214;2023-07-30T13:21:37;5.75;;;1.52;;
54937;SDS011;52756;52.826;6.214;2023-07-30T13:24:03;3.45;;;1.23;;
54937;SDS011;52756;52.826;6.214;2023-07-30T13:26:29;4.53;;;1.35;;
54937;SDS011;52756;52.826;6.214;2023-07-30T13:28:54;4.10;;;1.40;;
54937;SDS011;52756;52.826;6.214;2023-07-30T13:31:20;3.47;;;0.90;;
54937;SDS011;52756;52.826;6.214;2023-07-30T13:33:46;3.92;;;1.10;;
54937;SDS011;52756;52.826;6.214;2023-07-30T13:36:13;4.25;;;0.82;;
54937;SDS011;52756;52.826;6.214;2023-07-30T13:38:39;3.10;;;0.93;;
54937;SDS011;52756;52.826;6.214;2023-07-30T13:41:05;3.55;;;1.10;;
54937;SDS011;52756;52.826;6.214;2023-07-30T13:43:32;4.47;;;1.35;;
54937;SDS011;52756;52.826;6.214;2023-07-30T13:45:58;4.03;;;1.15;;
54937;SDS011;52756;52.826;6.214;2023-07-30T13:48:24;5.32;;;1.20;;
54937;SDS011;52756;52.826;6.214;2023-07-30T13:50:50;4.57;;;1.20;;
54937;SDS011;52756;52.826;6.214;2023-07-30T13:53:17;4.88;;;1.08;;
54937;SDS011;52756;52.826;6.214;2023-07-30T13:55:43;3.97;;;1.10;;
54937;SDS011;52756;52.826;6.214;2023-07-30T13:58:09;2.05;;;0.90;;
54937;SDS011;52756;52.826;6.214;2023-07-30T14:00:34;4.68;;;1.23;;
54937;SDS011;52756;52.826;6.214;2023-07-30T14:03:00;4.15;;;1.00;;
54937;SDS011;52756;52.826;6.214;2023-07-30T14:05:26;6.13;;;1.48;;
54937;SDS011;52756;52.826;6.214;2023-07-30T14:07:55;5.28;;;1.30;;
54937;SDS011;52756;52.826;6.214;2023-07-30T14:10:24;5.18;;;1.20;;
54937;SDS011;52756;52.826;6.214;2023-07-30T14:12:51;6.93;;;1.65;;
54937;SDS011;52756;52.826;6.214;2023-07-30T14:15:17;9.27;;;2.03;;
54937;SDS011;52756;52.826;6.214;2023-07-30T14:17:43;5.63;;;1.60;;
54937;SDS011;52756;52.826;6.214;2023-07-30T14:20:09;7.60;;;1.70;;
54937;SDS011;52756;52.826;6.214;2023-07-30T14:22:35;6.05;;;1.58;;
54937;SDS011;52756;52.826;6.214;2023-07-30T14:25:03;6.28;;;1.77;;
54937;SDS011;52756;52.826;6.214;2023-07-30T14:27:30;6.53;;;1.27;;
54937;SDS011;52756;52.826;6.214;2023-07-30T14:29:56;8.70;;;1.92;;
54937;SDS011;52756;52.826;6.214;2023-07-30T14:32:22;6.60;;;1.90;;
54937;SDS011;52756;52.826;6.214;2023-07-30T14:34:48;5.72;;;1.65;;
54937;SDS011;52756;52.826;6.214;2023-07-30T14:37:14;7.75;;;1.90;;
54937;SDS011;52756;52.826;6.214;2023-07-30T14:39:40;8.25;;;1.83;;
54937;SDS011;52756;52.826;6.214;2023-07-30T14:42:06;7.20;;;1.55;;
54937;SDS011;52756;52.826;6.214;2023-07-30T14:44:32;8.05;;;2.17;;
54937;SDS011;52756;52.826;6.214;2023-07-30T14:46:59;4.80;;;1.13;;
54937;SDS011;52756;52.826;6.214;2023-07-30T14:49:25;5.20;;;1.60;;